Time;durP1;ratioP1;P1;durP2;ratioP2;P2;SDS_P1;SDS_P2;PMS_P1;PMS_P2;Temp;Humidity;BMP_temperature;BMP_pressure;BME280_temperature;BME280_humidity;BME280_pressure;Samples;Min_cycle;Max_cycle;Signal;HPM_P1;HPM_P2
2023/06/29 00:00:22;;;;;;;11.52;7.15;;;;;;;-144.73;100.00;54346.13;5011010;28;20034;-72
2023/06/29 00:02:48;;;;;;;14.63;8.20;;;;;;;-144.73;100.00;54329.72;5011434;28;20042;-71
2023/06/29 00:05:14;;;;;;;16.83;9.27;;;;;;;-144.73;100.00;54333.81;5008945;28;20168;-71
2023/06/29 00:07:40;;;;;;;13.88;8.43;;;;;;;-144.73;100.00;54329.72;5005694;28;20041;-71
2023/06/29 00:10:07;;;;;;;14.68;8.38;;;;;;;-144.73;100.00;54321.50;5009989;28;20030;-71
2023/06/29 00:12:33;;;;;;;17.23;8.98;;;;;;;-144.73;100.00;54356.38;5004119;28;20164;-71
2023/06/29 00:14:58;;;;;;;16.08;7.85;;;;;;;-144.73;100.00;54366.66;5010969;28;20105;-71
2023/06/29 00:17:23;;;;;;;13.95;7.53;;;;;;;-144.73;100.00;54327.66;5009452;28;20116;-71
2023/06/29 00:19:48;;;;;;;17.27;9.07;;;;;;;-144.73;100.00;54370.75;5009910;28;20517;-71
2023/06/29 00:22:15;;;;;;;13.68;8.95;;;;;;;-144.73;100.00;54300.97;5009657;28;20025;-71
2023/06/29 00:24:43;;;;;;;13.07;9.23;;;;;;;-144.73;100.00;54344.06;5009672;28;20033;-71
2023/06/29 00:27:13;;;;;;;16.48;10.70;;;;;;;-144.73;100.00;54331.75;5010024;28;20045;-72
2023/06/29 00:29:41;;;;;;;17.77;9.50;;;;;;;-144.73;100.00;54372.81;5009883;28;20061;-71
2023/06/29 00:32:07;;;;;;;17.77;10.82;;;;;;;-144.73;100.00;54329.72;5010461;28;20053;-71
2023/06/29 00:34:32;;;;;;;15.85;10.27;;;;;;;-144.73;100.00;54342.03;5010815;28;20014;-70
2023/06/29 00:36:58;;;;;;;14.68;10.73;;;;;;;-144.73;100.00;54321.50;5009852;28;20038;-70
2023/06/29 00:39:23;;;;;;;18.42;9.65;;;;;;;-144.73;100.00;54378.97;5010550;28;20120;-70
2023/06/29 00:41:55;;;;;;;19.20;10.65;;;;;;;-144.73;100.00;54337.91;5011251;28;20478;-70
2023/06/29 00:44:22;;;;;;;16.33;11.00;;;;;;;-144.73;100.00;54325.59;5010005;28;20017;-70
2023/06/29 00:46:49;;;;;;;19.48;11.05;;;;;;;-144.73;100.00;54329.72;5011168;28;20088;-71
2023/06/29 00:49:14;;;;;;;20.70;11.48;;;;;;;-144.73;100.00;54321.50;5009549;28;20438;-70
2023/06/29 00:51:40;;;;;;;17.33;11.80;;;;;;;-144.73;100.00;54337.91;5008219;28;20084;-71
2023/06/29 00:54:06;;;;;;;23.50;11.75;;;;;;;-144.73;100.00;54342.03;5009214;28;20018;-71
2023/06/29 00:56:33;;;;;;;17.75;11.80;;;;;;;-144.73;100.00;54333.81;5010220;28;20037;-70
2023/06/29 00:58:59;;;;;;;23.65;12.80;;;;;;;-144.73;100.00;54354.34;5009572;28;20029;-71
2023/06/29 01:01:24;;;;;;;20.80;11.45;;;;;;;-144.73;100.00;54337.91;5009248;28;20034;-71
2023/06/29 01:03:49;;;;;;;16.00;10.23;;;;;;;-144.73;100.00;54327.66;5009736;28;20018;-71
2023/06/29 01:06:22;;;;;;;20.27;10.82;;;;;;;-144.73;100.00;54350.22;5008037;28;20042;-71
2023/06/29 01:08:51;;;;;;;22.15;11.40;;;;;;;-144.73;100.00;54329.72;5000209;28;20026;-71
2023/06/29 01:11:19;;;;;;;18.10;11.23;;;;;;;-144.73;100.00;54329.72;5015768;28;20045;-71
2023/06/29 01:13:46;;;;;;;18.08;13.45;;;;;;;-144.73;100.00;54358.44;5008607;28;20415;-71
2023/06/29 01:16:13;;;;;;;19.92;10.93;;;;;;;-144.73;100.00;54342.03;5000336;28;20037;-71
2023/06/29 01:18:41;;;;;;;13.45;10.07;;;;;;;-144.73;100.00;54321.50;5008987;28;20028;-71
2023/06/29 01:21:07;;;;;;;13.20;9.73;;;;;;;-144.73;100.00;54339.97;5003994;28;20038;-71
2023/06/29 01:23:36;;;;;;;16.65;9.55;;;;;;;-144.73;100.00;54358.44;5008939;28;20021;-71
2023/06/29 01:26:03;;;;;;;17.45;10.65;;;;;;;-144.73;100.00;54333.81;5008632;28;20503;-71
2023/06/29 01:28:31;;;;;;;12.65;10.48;;;;;;;-144.73;100.00;54337.91;5009965;28;20022;-71
2023/06/29 01:30:58;;;;;;;20.52;12.00;;;;;;;-144.73;100.00;54374.84;5008187;28;20121;-71
2023/06/29 01:33:24;;;;;;;16.67;10.65;;;;;;;-144.73;100.00;54354.34;5008408;28;20021;-71
2023/06/29 01:35:56;;;;;;;13.38;10.10;;;;;;;-144.73;100.00;54354.34;5008737;28;20108;-71
2023/06/29 01:38:33;;;;;;;15.88;10.55;;;;;;;-144.73;100.00;54317.38;5008967;28;20043;-71
2023/06/29 01:41:01;;;;;;;18.13;10.60;;;;;;;-144.73;100.00;54346.13;5008439;28;20117;-71
2023/06/29 01:43:28;;;;;;;18.73;11.38;;;;;;;-144.73;100.00;54354.34;5007915;28;20014;-71
2023/06/29 01:45:54;;;;;;;25.60;13.60;;;;;;;-144.73;100.00;54350.22;5009708;28;20034;-71
2023/06/29 01:48:19;;;;;;;19.17;11.43;;;;;;;-144.73;100.00;54333.81;5007095;28;20542;-72
2023/06/29 01:50:45;;;;;;;18.58;13.02;;;;;;;-144.73;100.00;54337.91;5008496;28;20038;-71
2023/06/29 01:53:10;;;;;;;28.77;20.55;;;;;;;-144.73;100.00;54323.53;5008089;28;20112;-71
2023/06/29 01:55:36;;;;;;;29.00;21.00;;;;;;;-144.73;100.00;54344.06;5007218;28;20042;-72
2023/06/29 01:58:01;;;;;;;26.75;20.92;;;;;;;-144.73;100.00;54354.34;5009955;28;20052;-71
2023/06/29 02:00:26;;;;;;;27.85;21.08;;;;;;;-144.73;100.00;54387.19;5006231;28;20031;-72
2023/06/29 02:02:52;;;;;;;31.00;24.10;;;;;;;-144.73;100.00;54356.38;5008289;28;20025;-72
2023/06/29 02:05:19;;;;;;;32.75;25.67;;;;;;;-144.73;100.00;54333.81;5006388;28;20040;-71
2023/06/29 02:07:45;;;;;;;32.30;25.58;;;;;;;-144.73;100.00;54337.91;5008524;28;20403;-71
2023/06/29 02:10:10;;;;;;;30.63;24.05;;;;;;;-144.73;100.00;54350.22;5008213;28;20041;-72
2023/06/29 02:12:37;;;;;;;30.88;23.35;;;;;;;-144.73;100.00;54370.75;5008036;28;20040;-72
2023/06/29 02:15:03;;;;;;;31.90;24.90;;;;;;;-144.73;100.00;54342.03;5005784;28;20489;-72
2023/06/29 02:17:28;;;;;;;32.83;26.25;;;;;;;-144.73;100.00;54354.34;5009084;28;20160;-72
2023/06/29 02:19:53;;;;;;;34.10;24.95;;;;;;;-144.73;100.00;54337.91;5008283;28;20061;-71
2023/06/29 02:22:18;;;;;;;33.67;25.80;;;;;;;-144.73;100.00;54350.22;5007362;28;20104;-71
2023/06/29 02:24:44;;;;;;;34.35;26.30;;;;;;;-144.73;100.00;54337.91;5007898;28;20026;-72
2023/06/29 02:27:09;;;;;;;37.88;27.67;;;;;;;-144.73;100.00;54378.97;5008083;28;20060;-72
2023/06/29 02:29:34;;;;;;;31.05;24.83;;;;;;;-144.73;100.00;54337.91;5009192;28;20033;-70
2023/06/29 02:32:00;;;;;;;35.28;26.02;;;;;;;-144.73;100.00;54305.06;5007625;28;20044;-70
2023/06/29 02:34:25;;;;;;;31.63;23.95;;;;;;;-144.73;100.00;54319.44;5007204;28;20413;-73
2023/06/29 02:36:50;;;;;;;37.45;25.15;;;;;;;-144.73;100.00;54362.53;5006883;28;20049;-70
2023/06/29 02:39:16;;;;;;;34.15;26.40;;;;;;;-144.73;100.00;54387.19;5009345;28;20117;-70
2023/06/29 02:41:41;;;;;;;38.08;26.08;;;;;;;-144.73;100.00;54354.34;5003993;28;20068;-70
2023/06/29 02:44:06;;;;;;;31.02;24.30;;;;;;;-144.73;100.00;54350.22;5007890;28;20053;-70
2023/06/29 02:46:32;;;;;;;30.65;23.88;;;;;;;-144.73;100.00;54333.81;5007164;28;20120;-71
2023/06/29 02:48:57;;;;;;;31.40;23.33;;;;;;;-144.73;100.00;54362.53;5009120;28;20034;-71
2023/06/29 02:51:22;;;;;;;38.13;25.38;;;;;;;-144.73;100.00;54360.50;5007482;28;20121;-71
2023/06/29 02:53:48;;;;;;;36.53;23.70;;;;;;;-144.73;100.00;54315.34;5007676;28;20048;-71
2023/06/29 02:56:13;;;;;;;32.85;23.65;;;;;;;-144.73;100.00;54346.13;5009511;28;20530;-71
2023/06/29 02:58:38;;;;;;;34.58;25.05;;;;;;;-144.73;100.00;54346.13;5008075;28;20030;-71
2023/06/29 03:01:04;;;;;;;33.05;26.20;;;;;;;-144.73;100.00;54307.13;5008128;28;20030;-71
2023/06/29 03:03:29;;;;;;;34.55;24.25;;;;;;;-144.73;100.00;54362.53;5007524;28;20064;-71
2023/06/29 03:05:54;;;;;;;31.75;24.90;;;;;;;-144.73;100.00;54364.59;5007448;28;20037;-71
2023/06/29 03:08:19;;;;;;;39.88;25.25;;;;;;;-144.73;100.00;54374.84;5011897;28;20053;-70
2023/06/29 03:10:45;;;;;;;35.30;25.17;;;;;;;-144.73;100.00;54368.69;5011006;28;20399;-71
2023/06/29 03:13:10;;;;;;;33.08;25.48;;;;;;;-144.73;100.00;54366.66;5012536;28;20030;-71
2023/06/29 03:15:35;;;;;;;35.63;27.38;;;;;;;-144.73;100.00;54342.03;5010814;28;20026;-70
2023/06/29 03:18:01;;;;;;;40.10;28.67;;;;;;;-144.73;100.00;54358.44;5011559;28;20033;-71
2023/06/29 03:20:29;;;;;;;41.30;28.08;;;;;;;-144.73;100.00;54374.84;5010503;28;20402;-71
2023/06/29 03:22:54;;;;;;;36.00;27.42;;;;;;;-144.73;100.00;54383.06;5018180;28;20022;-71
2023/06/29 03:25:20;;;;;;;43.30;31.98;;;;;;;-144.73;100.00;54354.34;5025581;28;20049;-71
2023/06/29 03:27:45;;;;;;;42.25;27.58;;;;;;;-144.73;100.00;54337.91;5011032;28;20064;-71
2023/06/29 03:30:11;;;;;;;39.92;29.05;;;;;;;-144.73;100.00;54354.34;5014661;28;20081;-71
2023/06/29 03:32:36;;;;;;;41.33;31.27;;;;;;;-144.73;100.00;54342.03;5011917;28;20022;-71
2023/06/29 03:35:03;;;;;;;39.47;30.88;;;;;;;-144.73;100.00;54366.66;5009653;28;20037;-71
2023/06/29 03:37:29;;;;;;;42.35;31.10;;;;;;;-144.73;100.00;54366.66;5011712;28;20026;-71
2023/06/29 03:39:54;;;;;;;37.67;28.67;;;;;;;-144.73;100.00;54362.53;5010856;28;20037;-71
2023/06/29 03:42:19;;;;;;;46.58;30.30;;;;;;;-144.73;100.00;54350.22;5013931;28;20025;-72
2023/06/29 03:44:45;;;;;;;40.70;28.77;;;;;;;-144.73;100.00;54356.38;5010843;28;20088;-71
2023/06/29 03:47:10;;;;;;;51.05;31.40;;;;;;;-144.73;100.00;54344.06;5012006;28;20022;-71
2023/06/29 03:49:35;;;;;;;39.47;29.25;;;;;;;-144.73;100.00;54333.81;5011103;28;20022;-71
2023/06/29 03:52:01;;;;;;;43.30;30.85;;;;;;;-144.73;100.00;54350.22;5010559;28;20030;-72
2023/06/29 03:54:27;;;;;;;40.25;30.45;;;;;;;-144.73;100.00;54381.00;5009936;28;20394;-72
2023/06/29 03:56:54;;;;;;;44.10;30.73;;;;;;;-144.73;100.00;54366.66;5010814;28;20033;-72
2023/06/29 03:59:19;;;;;;;45.40;33.45;;;;;;;-144.73;100.00;54360.50;5013292;28;20029;-72
2023/06/29 04:01:45;;;;;;;46.28;32.42;;;;;;;-144.73;100.00;54356.38;5010153;28;20152;-72
2023/06/29 04:04:10;;;;;;;45.22;33.20;;;;;;;-144.73;100.00;54370.75;5011618;28;20022;-71
2023/06/29 04:06:35;;;;;;;44.72;31.92;;;;;;;-144.73;100.00;54346.13;5010405;28;20502;-72
2023/06/29 04:09:01;;;;;;;44.60;31.77;;;;;;;-144.73;100.00;54352.28;5012463;28;20029;-72
2023/06/29 04:11:26;;;;;;;50.22;32.47;;;;;;;-144.73;100.00;54362.53;5014138;28;20062;-71
2023/06/29 04:13:51;;;;;;;37.58;30.92;;;;;;;-144.73;100.00;54360.50;5011768;28;20021;-71
2023/06/29 04:16:17;;;;;;;43.33;33.17;;;;;;;-144.73;100.00;54374.84;5011743;28;20042;-71
2023/06/29 04:18:42;;;;;;;52.38;33.70;;;;;;;-144.73;100.00;54344.06;5013169;28;20026;-71
2023/06/29 04:21:07;;;;;;;46.13;31.90;;;;;;;-144.73;100.00;54364.59;5011665;28;20065;-71
2023/06/29 04:23:33;;;;;;;48.53;33.83;;;;;;;-144.73;100.00;54350.22;5011177;28;20481;-71
2023/06/29 04:26:04;;;;;;;45.80;32.47;;;;;;;-144.73;100.00;54364.59;5011132;28;20030;-74
2023/06/29 04:28:33;;;;;;;52.42;35.55;;;;;;;-144.73;100.00;54374.84;5009024;28;20021;-72
2023/06/29 04:30:59;;;;;;;50.72;35.30;;;;;;;-144.73;100.00;54391.28;5010838;28;20038;-72
2023/06/29 04:33:24;;;;;;;49.30;31.92;;;;;;;-144.73;100.00;54391.28;5009212;28;20038;-76
2023/06/29 04:35:50;;;;;;;49.65;35.45;;;;;;;-144.73;100.00;54368.69;5009619;28;20124;-72
2023/06/29 04:38:17;;;;;;;54.67;34.40;;;;;;;-144.73;100.00;54383.06;5011920;28;20038;-72
2023/06/29 04:40:43;;;;;;;52.00;36.13;;;;;;;-144.73;100.00;54391.28;5015366;28;20057;-72
2023/06/29 04:43:09;;;;;;;48.00;35.05;;;;;;;-144.73;100.00;54356.38;5008778;28;20061;-72
2023/06/29 04:45:35;;;;;;;51.75;34.85;;;;;;;-144.73;100.00;54395.38;5009080;28;20034;-73
2023/06/29 04:48:00;;;;;;;54.17;35.53;;;;;;;-144.73;100.00;54372.81;5011727;28;20036;-73
2023/06/29 04:50:30;;;;;;;49.65;36.08;;;;;;;-144.73;100.00;54374.84;5009907;28;20066;-72
2023/06/29 04:53:09;;;;;;;50.67;34.47;;;;;;;-144.73;100.00;54366.66;5009899;28;20545;-72
2023/06/29 04:55:36;;;;;;;46.30;33.67;;;;;;;-144.73;100.00;54391.28;5006759;28;20030;-72
2023/06/29 04:58:03;;;;;;;57.95;35.10;;;;;;;-144.73;100.00;54337.91;5004134;28;20597;-72
2023/06/29 05:00:29;;;;;;;55.15;33.80;;;;;;;-144.73;100.00;54346.13;5006374;28;20034;-72
2023/06/29 05:02:54;;;;;;;52.10;34.10;;;;;;;-144.73;100.00;54329.72;5006914;28;20021;-72
2023/06/29 05:05:19;;;;;;;58.15;35.42;;;;;;;-144.73;100.00;54395.38;5008979;28;20041;-73
2023/06/29 05:07:45;;;;;;;48.22;33.22;;;;;;;-144.73;100.00;54329.72;5006157;28;20360;-72
2023/06/29 05:10:10;;;;;;;47.80;31.27;;;;;;;-144.73;100.00;54378.97;5009225;28;20111;-72
2023/06/29 05:12:35;;;;;;;53.45;33.13;;;;;;;-144.73;100.00;54370.75;5010797;28;20030;-72
2023/06/29 05:15:02;;;;;;;48.40;31.95;;;;;;;-144.73;100.00;54350.22;5011051;28;20407;-73
2023/06/29 05:17:27;;;;;;;62.63;32.97;;;;;;;-144.73;100.00;54346.13;5009553;28;20022;-73
2023/06/29 05:19:52;;;;;;;55.63;33.00;;;;;;;-144.73;100.00;54366.66;5005329;28;20046;-73
2023/06/29 05:22:18;;;;;;;51.15;30.65;;;;;;;-144.73;100.00;54354.34;5006915;28;20092;-73
2023/06/29 05:24:43;;;;;;;47.50;31.80;;;;;;;-144.73;100.00;54366.66;5009217;28;20036;-73
2023/06/29 05:27:09;;;;;;;54.50;32.28;;;;;;;-144.73;100.00;54356.38;5008767;28;20037;-73
2023/06/29 05:29:35;;;;;;;46.75;29.60;;;;;;;-144.73;100.00;54366.66;5005257;28;20065;-71
2023/06/29 05:32:01;;;;;;;49.75;28.98;;;;;;;-144.73;100.00;54333.81;5013252;28;20029;-71
2023/06/29 05:34:26;;;;;;;42.95;29.23;;;;;;;-144.73;100.00;54354.34;5006236;28;20034;-73
2023/06/29 05:36:52;;;;;;;47.53;28.42;;;;;;;-144.73;100.00;54317.38;5001944;28;20498;-71
2023/06/29 05:39:18;;;;;;;48.78;28.10;;;;;;;-144.73;100.00;54346.13;4998161;28;20069;-71
2023/06/29 05:41:43;;;;;;;55.30;31.05;;;;;;;-144.73;100.00;54348.19;5005995;28;20054;-72
2023/06/29 05:44:08;;;;;;;49.92;28.83;;;;;;;-144.73;100.00;54358.44;5009349;28;20021;-72
2023/06/29 05:46:34;;;;;;;45.70;29.00;;;;;;;-144.73;100.00;54366.66;5003197;28;20117;-72
2023/06/29 05:49:00;;;;;;;48.58;29.15;;;;;;;-144.73;100.00;54364.59;5009067;28;20029;-73
2023/06/29 05:51:26;;;;;;;46.35;26.40;;;;;;;-144.73;100.00;54325.59;5006458;28;20038;-72
2023/06/29 05:53:52;;;;;;;50.72;29.48;;;;;;;-144.73;100.00;54378.97;5009130;28;20037;-72
2023/06/29 05:56:17;;;;;;;54.60;28.83;;;;;;;-144.73;100.00;54387.19;5008988;28;20045;-72
2023/06/29 05:58:43;;;;;;;48.90;27.83;;;;;;;-144.73;100.00;54321.50;5006483;28;20100;-72
2023/06/29 06:01:08;;;;;;;52.15;28.00;;;;;;;-144.73;100.00;54354.34;5006898;28;20034;-72
2023/06/29 06:03:35;;;;;;;40.65;26.73;;;;;;;-144.73;100.00;54366.66;5009616;28;20133;-73
2023/06/29 06:06:01;;;;;;;50.83;26.85;;;;;;;-144.73;100.00;54342.03;5008239;28;20117;-72
2023/06/29 06:08:26;;;;;;;47.97;26.42;;;;;;;-144.73;100.00;54337.91;5013430;28;20190;-72
2023/06/29 06:10:52;;;;;;;50.63;25.95;;;;;;;-144.73;100.00;54391.28;5007296;28;20088;-72
2023/06/29 06:13:17;;;;;;;42.63;26.50;;;;;;;-144.73;100.00;54325.59;5008089;28;20048;-72
2023/06/29 06:15:42;;;;;;;46.45;25.77;;;;;;;-144.73;100.00;54383.06;5008094;28;20397;-72
2023/06/29 06:18:08;;;;;;;46.15;24.92;;;;;;;-144.73;100.00;54366.66;5008003;28;20522;-71
2023/06/29 06:20:33;;;;;;;45.28;24.10;;;;;;;-144.73;100.00;54358.44;5008298;28;20040;-71
2023/06/29 06:22:59;;;;;;;51.15;24.52;;;;;;;-144.73;100.00;54411.81;5008287;28;20026;-71
2023/06/29 06:25:24;;;;;;;42.58;23.83;;;;;;;-144.73;100.00;54331.75;5003459;28;20056;-72
2023/06/29 06:27:50;;;;;;;49.08;23.63;;;;;;;-144.73;100.00;54362.53;5020670;28;20029;-72
2023/06/29 06:30:15;;;;;;;41.17;26.25;;;;;;;-144.73;100.00;54350.22;5007104;28;20034;-73
2023/06/29 06:32:41;;;;;;;41.92;25.27;;;;;;;-144.73;100.00;54337.91;5016613;28;20029;-72
2023/06/29 06:35:08;;;;;;;45.00;25.13;;;;;;;-144.73;100.00;54358.44;5013267;28;20088;-72
2023/06/29 06:37:36;;;;;;;38.83;22.92;;;;;;;-144.73;100.00;54337.91;5015254;28;20095;-72
2023/06/29 06:40:07;;;;;;;48.50;24.23;;;;;;;-144.73;100.00;54346.13;5011127;28;20033;-71
2023/06/29 06:42:36;;;;;;;44.33;24.50;;;;;;;-144.73;100.00;54358.44;5019862;28;20018;-72
2023/06/29 06:45:05;;;;;;;44.47;20.92;;;;;;;-144.73;100.00;54321.50;5020972;28;20049;-72
2023/06/29 06:47:31;;;;;;;34.55;19.38;;;;;;;-144.73;100.00;54333.81;5019180;28;20087;-72
2023/06/29 06:49:57;;;;;;;31.40;20.02;;;;;;;-144.73;100.00;54350.22;5018122;28;20037;-72
2023/06/29 06:52:23;;;;;;;35.85;24.83;;;;;;;-144.73;100.00;54407.69;5016853;28;20024;-72
2023/06/29 06:54:48;;;;;;;36.35;22.90;;;;;;;-144.73;100.00;54387.19;5017620;28;20037;-73
2023/06/29 06:57:14;;;;;;;30.92;20.10;;;;;;;-144.73;100.00;54325.59;5019237;28;20022;-73
2023/06/29 06:59:39;;;;;;;39.05;21.85;;;;;;;-144.73;100.00;54352.28;5017525;28;20037;-73
2023/06/29 07:02:06;;;;;;;41.15;21.48;;;;;;;-144.73;100.00;54378.97;5017728;28;20014;-72
2023/06/29 07:04:31;;;;;;;39.63;23.35;;;;;;;-144.73;100.00;54327.66;5018216;28;20030;-73
2023/06/29 07:06:57;;;;;;;35.03;22.02;;;;;;;-144.73;100.00;54354.34;5015504;28;20025;-73
2023/06/29 07:09:22;;;;;;;42.17;23.75;;;;;;;-144.73;100.00;54372.81;5016695;28;20041;-73
2023/06/29 07:11:47;;;;;;;40.95;22.75;;;;;;;-144.73;100.00;54329.72;5019176;28;20018;-72
2023/06/29 07:14:13;;;;;;;36.72;19.80;;;;;;;-144.73;100.00;54350.22;5021816;28;20041;-72
2023/06/29 07:16:38;;;;;;;37.28;21.60;;;;;;;-144.73;100.00;54335.88;5024362;28;20034;-73
2023/06/29 07:19:06;;;;;;;36.95;22.10;;;;;;;-144.73;100.00;54356.38;5016471;28;20033;-73
2023/06/29 07:21:31;;;;;;;45.65;20.67;;;;;;;-144.73;100.00;54342.03;5021713;28;20453;-72
2023/06/29 07:23:57;;;;;;;44.67;22.83;;;;;;;-144.73;100.00;54333.81;5021456;28;20118;-77
2023/06/29 07:26:22;;;;;;;38.83;21.98;;;;;;;-144.73;100.00;54354.34;5020207;28;20057;-77
2023/06/29 07:28:48;;;;;;;49.95;21.58;;;;;;;-144.73;100.00;54337.91;5021966;28;20029;-76
2023/06/29 07:31:14;;;;;;;47.78;21.92;;;;;;;-144.73;100.00;54337.91;5008780;28;20117;-77
2023/06/29 07:33:41;;;;;;;30.90;21.02;;;;;;;-144.73;100.00;54325.59;5011351;28;20029;-77
2023/06/29 07:36:06;;;;;;;40.63;21.55;;;;;;;-144.73;100.00;54350.22;5011453;28;20052;-78
2023/06/29 07:38:32;;;;;;;46.38;21.90;;;;;;;-144.73;100.00;54358.44;5006985;28;20049;-76
2023/06/29 07:40:57;;;;;;;48.85;23.98;;;;;;;-144.73;100.00;54346.13;5012663;28;20037;-78
2023/06/29 07:43:22;;;;;;;45.92;22.02;;;;;;;-144.73;100.00;54354.34;5012047;28;20536;-77
2023/06/29 07:45:48;;;;;;;37.90;20.60;;;;;;;-144.73;100.00;54337.91;5005983;28;20064;-76
2023/06/29 07:48:13;;;;;;;43.67;22.02;;;;;;;-144.73;100.00;54358.44;5008569;28;20047;-77
2023/06/29 07:50:38;;;;;;;44.38;22.20;;;;;;;-144.73;100.00;54333.81;4997455;28;20026;-76
2023/06/29 07:53:04;;;;;;;47.53;22.10;;;;;;;-144.73;100.00;54323.53;5003011;28;20030;-77
2023/06/29 07:55:29;;;;;;;42.42;22.10;;;;;;;-144.73;100.00;54358.44;5011015;28;20026;-78
2023/06/29 07:57:54;;;;;;;39.08;23.65;;;;;;;-144.73;100.00;54333.81;5011486;28;20107;-76
2023/06/29 08:00:21;;;;;;;41.97;23.25;;;;;;;-144.73;100.00;54313.28;5011666;28;20037;-79
2023/06/29 08:02:47;;;;;;;45.33;23.52;;;;;;;-144.73;100.00;54309.19;5012278;28;20075;-77
2023/06/29 08:05:13;;;;;;;39.15;22.13;;;;;;;-144.73;100.00;54337.91;5012111;28;20086;-77
2023/06/29 08:07:38;;;;;;;41.88;22.33;;;;;;;-144.73;100.00;54313.28;5012045;28;20022;-77
2023/06/29 08:10:04;;;;;;;40.13;21.33;;;;;;;-144.73;100.00;54296.88;5011722;28;20041;-77
2023/06/29 08:12:29;;;;;;;41.33;21.65;;;;;;;-144.73;100.00;54259.91;5011919;28;20109;-77
2023/06/29 08:14:54;;;;;;;35.00;21.17;;;;;;;-144.73;100.00;54342.03;5011657;28;20033;-79
2023/06/29 08:17:20;;;;;;;41.65;20.63;;;;;;;-144.73;100.00;54344.06;5010283;28;20022;-77
2023/06/29 08:19:45;;;;;;;39.08;20.15;;;;;;;-144.73;98.09;54300.97;5011355;28;20037;-77
2023/06/29 08:22:11;;;;;;;46.75;24.88;;;;;;;-144.73;93.19;54327.66;5011280;28;20057;-77
2023/06/29 08:24:36;;;;;;;41.33;22.85;;;;;;;-144.73;93.74;54309.19;5011182;28;20041;-77
2023/06/29 08:27:02;;;;;;;46.45;23.50;;;;;;;-144.73;94.81;54321.50;5012289;28;20026;-78
2023/06/29 08:29:27;;;;;;;44.17;23.80;;;;;;;-144.73;99.29;54321.50;5011043;28;20021;-78
2023/06/29 08:31:53;;;;;;;43.65;22.10;;;;;;;-144.73;100.00;54354.34;5005089;28;20029;-77
2023/06/29 08:34:18;;;;;;;49.30;24.83;;;;;;;-144.73;99.47;54362.53;5010166;28;20018;-77
2023/06/29 08:36:43;;;;;;;52.75;25.35;;;;;;;-144.73;99.61;54321.50;5004910;28;20030;-77
2023/06/29 08:39:09;;;;;;;50.53;25.30;;;;;;;-144.73;100.00;54342.03;5010093;28;20030;-77
2023/06/29 08:41:34;;;;;;;36.67;21.58;;;;;;;-144.73;100.00;54387.19;5011050;28;20057;-77
2023/06/29 08:44:01;;;;;;;43.00;20.65;;;;;;;-144.73;100.00;54325.59;5012437;28;20076;-79
2023/06/29 08:46:27;;;;;;;51.10;25.40;;;;;;;-144.73;100.00;54300.97;5012584;28;20473;-77
2023/06/29 08:48:54;;;;;;;47.65;25.70;;;;;;;-144.73;100.00;54362.53;5011281;28;20025;-77
2023/06/29 08:51:21;;;;;;;56.17;27.20;;;;;;;-144.73;100.00;54280.44;5011508;28;20060;-77
2023/06/29 08:53:49;;;;;;;48.78;23.80;;;;;;;-144.73;99.19;54321.50;5010734;28;20041;-79
2023/06/29 08:56:15;;;;;;;39.20;21.65;;;;;;;-144.73;98.19;54319.44;5011082;28;20125;-79
2023/06/29 08:58:42;;;;;;;37.13;21.17;;;;;;;-144.73;96.19;54305.06;5006698;28;20033;-79
2023/06/29 09:01:08;;;;;;;40.50;21.38;;;;;;;-144.73;92.00;54294.81;5008097;28;20026;-78
2023/06/29 09:03:35;;;;;;;45.20;22.17;;;;;;;-144.73;92.34;54333.81;5009099;28;20018;-78
2023/06/29 09:06:03;;;;;;;46.35;21.85;;;;;;;-144.73;88.91;54325.59;5007111;28;20061;-77
2023/06/29 09:08:28;;;;;;;46.58;23.20;;;;;;;-144.73;87.12;54325.59;5010878;28;20026;-77
2023/06/29 09:10:54;;;;;;;45.45;24.65;;;;;;;-144.73;93.37;54329.72;5017126;28;20030;-78
2023/06/29 09:13:25;;;;;;;39.80;22.80;;;;;;;-144.73;95.39;54325.59;5008836;28;20030;-77
2023/06/29 09:15:52;;;;;;;42.30;22.17;;;;;;;-144.73;98.02;54280.44;5009580;28;20037;-77
2023/06/29 09:18:22;;;;;;;46.40;23.70;;;;;;;-144.73;92.83;54346.13;5009096;28;20267;-78
2023/06/29 09:20:58;;;;;;;45.40;22.17;;;;;;;-144.73;95.64;54350.22;5005666;28;20113;-79
2023/06/29 09:23:30;;;;;;;41.60;20.30;;;;;;;-144.73;92.16;54280.44;5009635;28;20061;-77
2023/06/29 09:25:56;;;;;;;46.85;22.02;;;;;;;-144.73;90.04;54337.91;5011713;28;20109;-77
2023/06/29 09:28:22;;;;;;;45.22;23.67;;;;;;;-144.73;88.22;54288.66;5010751;28;20405;-76
2023/06/29 09:30:49;;;;;;;45.33;21.80;;;;;;;-144.73;90.65;54321.50;5009868;28;20034;-76
2023/06/29 09:33:15;;;;;;;43.50;22.60;;;;;;;-144.73;89.51;54317.38;5010329;28;20018;-78
2023/06/29 09:35:46;;;;;;;49.92;24.13;;;;;;;-144.73;90.90;54300.97;5005930;28;20084;-76
2023/06/29 09:38:13;;;;;;;46.72;24.83;;;;;;;-144.73;91.35;54300.97;5003714;28;20108;-79
2023/06/29 09:40:53;;;;;;;53.05;24.48;;;;;;;-144.73;90.78;54317.38;5010329;28;20030;-77
2023/06/29 09:43:21;;;;;;;55.45;26.52;;;;;;;-144.73;91.93;54342.03;5018130;28;20018;-77
2023/06/29 09:45:47;;;;;;;53.17;27.00;;;;;;;-144.73;94.43;54325.59;5010674;28;20034;-78
2023/06/29 09:48:13;;;;;;;52.80;27.92;;;;;;;-144.73;94.74;54342.03;5009206;28;20033;-76
2023/06/29 09:50:47;;;;;;;50.92;26.58;;;;;;;-144.73;94.16;54309.19;5009635;28;20125;-76
2023/06/29 09:53:13;;;;;;;53.33;25.40;;;;;;;-144.73;96.00;54333.81;5009891;28;20030;-76
2023/06/29 09:55:40;;;;;;;47.38;23.33;;;;;;;-144.73;92.86;54305.06;5006958;28;20057;-77
2023/06/29 09:58:07;;;;;;;47.30;24.80;;;;;;;-144.73;94.27;54337.91;5001924;28;20053;-76
2023/06/29 10:00:32;;;;;;;39.83;23.45;;;;;;;-144.73;92.93;54321.50;5009442;28;20037;-77
2023/06/29 10:02:58;;;;;;;58.40;26.65;;;;;;;-144.73;90.73;54325.59;5009247;28;20022;-76
2023/06/29 10:05:23;;;;;;;50.50;27.17;;;;;;;-144.73;91.73;54354.34;5009299;28;20037;-76
2023/06/29 10:07:53;;;;;;;49.38;26.23;;;;;;;-144.73;93.59;54317.38;5011080;28;20026;-76
2023/06/29 10:10:20;;;;;;;55.00;27.63;;;;;;;-144.73;90.72;54296.88;5003731;28;20053;-77
2023/06/29 10:12:51;;;;;;;51.10;24.98;;;;;;;-144.73;87.95;54321.50;5009501;28;20064;-79
2023/06/29 10:15:18;;;;;;;54.72;27.00;;;;;;;-144.73;88.08;54300.97;5009392;28;20045;-76
2023/06/29 10:18:02;;;;;;;54.22;27.50;;;;;;;-144.73;90.02;54309.19;5009806;28;20022;-76
2023/06/29 10:20:31;;;;;;;50.60;25.60;;;;;;;-144.73;88.61;54292.75;5010310;28;20026;-76
2023/06/29 10:22:59;;;;;;;51.38;28.10;;;;;;;-144.73;86.08;54305.06;5009786;28;20033;-76
2023/06/29 10:25:26;;;;;;;51.72;27.17;;;;;;;-144.73;87.89;54296.88;5009227;28;20082;-76
2023/06/29 10:27:54;;;;;;;50.85;26.70;;;;;;;-144.73;84.96;54296.88;5009714;28;20022;-77
2023/06/29 10:30:23;;;;;;;46.47;25.55;;;;;;;-144.73;85.79;54292.75;5007317;28;20038;-77
2023/06/29 10:32:50;;;;;;;47.75;26.30;;;;;;;-144.73;84.29;54333.81;5011145;28;20026;-76
2023/06/29 10:35:15;;;;;;;48.78;25.45;;;;;;;-144.73;87.57;54333.81;5007144;28;20042;-77
2023/06/29 10:37:43;;;;;;;47.00;27.70;;;;;;;-144.73;90.88;54309.19;5012205;28;20033;-76
2023/06/29 10:40:20;;;;;;;53.80;26.20;;;;;;;-144.73;91.70;54313.28;5010572;28;20057;-77
2023/06/29 10:42:45;;;;;;;50.70;25.75;;;;;;;-144.73;89.76;54317.38;5013740;28;20021;-76
2023/06/29 10:45:21;;;;;;;45.78;24.98;;;;;;;-144.73;90.60;54303.03;5010276;28;20122;-76
2023/06/29 10:47:55;;;;;;;43.92;24.02;;;;;;;-144.73;92.46;54329.72;5009859;28;20065;-76
2023/06/29 10:50:31;;;;;;;49.47;24.75;;;;;;;-144.73;92.66;54325.59;5009041;28;20084;-78
2023/06/29 10:53:02;;;;;;;40.53;23.35;;;;;;;-144.73;93.85;54366.66;5009627;28;20029;-80